createdAt,value
2018-05-31T00:01:41.707Z,20.00
2018-05-31T00:04:10.046Z,20.00
2018-05-31T00:06:38.421Z,20.00
2018-05-31T00:09:06.759Z,19.90
2018-05-31T00:11:35.138Z,19.90
2018-05-31T00:14:03.490Z,19.90
2018-05-31T00:16:32.606Z,19.80
2018-05-31T00:19:00.961Z,19.80
2018-05-31T00:21:30.061Z,19.70
2018-05-31T00:23:58.461Z,19.70
2018-05-31T00:26:26.852Z,19.70
2018-05-31T00:28:55.221Z,19.70
2018-05-31T00:31:23.570Z,19.70
2018-05-31T00:33:52.699Z,19.70
2018-05-31T00:36:21.075Z,19.60
2018-05-31T00:38:49.559Z,19.60
2018-05-31T00:41:17.905Z,19.60
2018-05-31T00:43:47.136Z,19.60
2018-05-31T00:46:15.522Z,19.50
2018-05-31T00:48:43.862Z,19.60
2018-05-31T00:51:12.994Z,19.50
2018-05-31T00:53:41.374Z,19.50
2018-05-31T00:56:16.614Z,19.50
2018-05-31T00:58:44.991Z,19.50
2018-05-31T01:01:13.498Z,19.50
2018-05-31T01:03:41.845Z,19.50
2018-05-31T01:06:10.238Z,19.50
2018-05-31T01:08:38.578Z,19.50
2018-05-31T01:11:07.696Z,19.40
2018-05-31T01:13:36.056Z,19.40
2018-05-31T01:16:05.182Z,19.40
2018-05-31T01:18:33.574Z,19.40
2018-05-31T01:21:01.938Z,19.40
2018-05-31T01:23:30.318Z,19.40
2018-05-31T01:25:58.723Z,19.40
2018-05-31T01:28:27.219Z,19.30
2018-05-31T01:30:55.520Z,19.30
2018-05-31T01:33:24.645Z,19.20
2018-05-31T01:35:53.823Z,19.20
2018-05-31T01:38:32.983Z,19.20
2018-05-31T01:41:01.352Z,19.10
2018-05-31T01:43:29.715Z,19.10
2018-05-31T01:45:58.833Z,19.20
2018-05-31T01:48:27.210Z,19.10
2018-05-31T01:50:55.620Z,19.10
2018-05-31T01:53:23.959Z,19.20
2018-05-31T01:55:52.483Z,19.20
2018-05-31T01:58:20.826Z,19.20
2018-05-31T02:00:49.188Z,19.20
2018-05-31T02:03:18.314Z,19.10
2018-05-31T02:05:46.672Z,19.10
2018-05-31T02:08:15.019Z,19.10
2018-05-31T02:10:43.397Z,19.10
2018-05-31T02:13:12.094Z,19.10
2018-05-31T02:15:40.454Z,19.10
2018-05-31T02:18:08.811Z,19.10
2018-05-31T02:20:37.176Z,19.00
2018-05-31T02:23:05.514Z,19.00
2018-05-31T02:25:34.653Z,19.00
2018-05-31T02:28:03.016Z,19.00
2018-05-31T02:30:31.394Z,19.00
2018-05-31T02:32:59.746Z,19.00
2018-05-31T02:35:28.899Z,18.90
2018-05-31T02:37:57.259Z,18.90
2018-05-31T02:40:25.611Z,18.90
2018-05-31T02:42:54.734Z,18.90
2018-05-31T02:45:23.091Z,18.80
2018-05-31T02:47:52.213Z,18.80
2018-05-31T02:50:20.571Z,18.80
2018-05-31T02:52:49.698Z,18.80
2018-05-31T02:55:18.050Z,18.80
2018-05-31T02:57:46.655Z,18.90
2018-05-31T03:00:15.010Z,18.80
2018-05-31T03:02:43.410Z,18.80
2018-05-31T03:05:11.754Z,18.80
2018-05-31T03:07:40.998Z,18.80
2018-05-31T03:10:09.709Z,18.70
2018-05-31T03:12:38.048Z,18.70
2018-05-31T03:15:06.437Z,18.70
2018-05-31T03:17:34.779Z,18.60
2018-05-31T03:20:03.894Z,18.70
2018-05-31T03:22:32.242Z,18.60
2018-05-31T03:25:00.695Z,18.60
2018-05-31T03:27:29.046Z,18.70
2018-05-31T03:29:57.547Z,18.70
2018-05-31T03:32:25.885Z,18.70
2018-05-31T03:34:55.297Z,18.70
2018-05-31T03:37:23.636Z,18.70
2018-05-31T03:39:52.078Z,18.70
2018-05-31T03:42:20.463Z,18.70
2018-05-31T03:44:48.995Z,18.70
2018-05-31T03:47:17.342Z,18.70
2018-05-31T03:49:45.685Z,18.70
2018-05-31T03:52:14.078Z,18.70
2018-05-31T03:54:42.459Z,18.70
2018-05-31T03:57:10.857Z,18.70
2018-05-31T03:59:39.199Z,18.80
2018-05-31T04:02:07.695Z,18.80
2018-05-31T04:04:36.069Z,18.80
2018-05-31T04:07:04.497Z,18.80
2018-05-31T04:09:32.937Z,18.80
2018-05-31T04:12:01.356Z,18.80
2018-05-31T04:14:29.965Z,18.80
2018-05-31T04:16:59.207Z,18.90
2018-05-31T04:19:27.546Z,18.90
2018-05-31T04:21:56.673Z,19.00
2018-05-31T04:24:25.021Z,19.00
2018-05-31T04:26:54.144Z,19.10
2018-05-31T04:29:22.526Z,19.10
2018-05-31T04:31:50.876Z,19.20
2018-05-31T04:34:20.005Z,19.20
2018-05-31T04:36:48.417Z,19.20
2018-05-31T04:39:16.862Z,19.30
2018-05-31T04:41:45.212Z,19.40
2018-05-31T04:44:14.322Z,19.40
2018-05-31T04:46:42.662Z,19.40
2018-05-31T04:49:11.053Z,19.40
2018-05-31T04:51:39.396Z,19.50
2018-05-31T04:54:07.743Z,19.50
2018-05-31T04:56:36.090Z,19.60
2018-05-31T04:59:05.219Z,19.80
2018-05-31T05:01:33.574Z,19.80
2018-05-31T05:04:02.683Z,19.90
2018-05-31T05:06:31.046Z,19.90
2018-05-31T05:08:59.382Z,20.00
2018-05-31T05:11:27.756Z,20.10
2018-05-31T05:13:56.132Z,20.20
2018-05-31T05:16:24.563Z,20.30
2018-05-31T05:18:53.701Z,20.50
2018-05-31T05:21:22.074Z,20.50
2018-05-31T05:23:50.576Z,20.60
2018-05-31T05:26:18.916Z,20.70
2018-05-31T05:28:47.266Z,20.80
2018-05-31T05:31:15.647Z,20.80
2018-05-31T05:33:44.080Z,20.90
2018-05-31T05:36:12.458Z,21.10
2018-05-31T05:38:40.941Z,21.20
2018-05-31T05:41:09.386Z,21.30
2018-05-31T05:43:38.515Z,21.50
2018-05-31T05:46:06.924Z,21.50
2018-05-31T05:48:35.289Z,21.60
2018-05-31T05:51:03.723Z,21.70
2018-05-31T05:53:32.853Z,21.90
2018-05-31T05:56:01.272Z,21.90
2018-05-31T05:58:29.634Z,22.00
2018-05-31T06:00:57.995Z,22.10
2018-05-31T06:03:26.425Z,22.20
2018-05-31T06:05:55.678Z,22.40
2018-05-31T06:08:24.054Z,22.40
2018-05-31T06:10:52.438Z,22.60
2018-05-31T06:13:20.775Z,22.80
2018-05-31T06:15:50.008Z,23.20
2018-05-31T06:18:18.544Z,23.10
2018-05-31T06:20:46.989Z,23.30
2018-05-31T06:23:16.239Z,23.40
2018-05-31T06:25:44.599Z,23.50
2018-05-31T06:28:13.150Z,23.70
2018-05-31T06:30:41.530Z,23.90
2018-05-31T06:33:09.875Z,24.00
2018-05-31T06:35:38.237Z,24.10
2018-05-31T06:38:07.401Z,24.40
2018-05-31T06:40:35.868Z,24.40
2018-05-31T06:43:04.203Z,24.50
2018-05-31T06:45:33.335Z,24.50
2018-05-31T06:48:01.708Z,24.50
2018-05-31T06:50:30.078Z,24.50
2018-05-31T06:52:58.510Z,24.60
2018-05-31T06:55:26.865Z,24.60
2018-05-31T06:57:55.222Z,24.60
2018-05-31T07:00:24.714Z,24.60
2018-05-31T07:02:53.082Z,24.70
2018-05-31T07:05:22.410Z,24.80
2018-05-31T07:07:50.765Z,24.80
2018-05-31T07:10:19.119Z,24.90
2018-05-31T07:12:47.475Z,24.80
2018-05-31T07:15:15.930Z,24.90
2018-05-31T07:17:44.293Z,24.90
2018-05-31T07:20:12.638Z,25.00
2018-05-31T07:22:41.088Z,25.00
2018-05-31T07:25:09.555Z,25.10
2018-05-31T07:27:37.886Z,25.20
2018-05-31T07:30:07.011Z,25.20
2018-05-31T07:32:35.363Z,25.10
2018-05-31T07:35:04.484Z,25.20
2018-05-31T07:37:32.858Z,25.20
2018-05-31T07:40:01.278Z,25.30
2018-05-31T07:42:29.630Z,25.40
2018-05-31T07:44:57.999Z,25.40
2018-05-31T07:47:26.423Z,25.50
2018-05-31T07:49:54.796Z,25.60
2018-05-31T07:52:23.167Z,25.70
2018-05-31T07:54:51.518Z,25.70
2018-05-31T07:57:19.888Z,25.80
2018-05-31T07:59:48.994Z,25.90
2018-05-31T08:02:17.367Z,25.90
2018-05-31T08:04:45.767Z,25.90
2018-05-31T08:07:14.342Z,26.00
2018-05-31T08:09:42.726Z,26.00
2018-05-31T08:12:11.083Z,26.10
2018-05-31T08:14:40.190Z,26.30
2018-05-31T08:17:08.559Z,26.30
2018-05-31T08:19:37.698Z,26.50
2018-05-31T08:22:06.049Z,26.50
2018-05-31T08:24:34.441Z,26.60
2018-05-31T08:27:02.836Z,26.70
2018-05-31T08:29:31.181Z,26.70
2018-05-31T08:32:00.294Z,27.00
2018-05-31T08:34:28.670Z,26.90
2018-05-31T08:36:57.022Z,27.00
2018-05-31T08:39:26.575Z,27.30
2018-05-31T08:41:54.901Z,27.20
2018-05-31T08:44:24.037Z,27.40
2018-05-31T08:46:52.373Z,27.40
2018-05-31T08:49:21.514Z,27.50
2018-05-31T08:51:49.850Z,27.50
2018-05-31T08:54:19.087Z,27.70
2018-05-31T08:56:47.467Z,27.70
2018-05-31T08:59:15.912Z,27.80
2018-05-31T09:01:45.055Z,28.00
2018-05-31T09:04:13.432Z,28.00
2018-05-31T09:06:41.867Z,28.20
2018-05-31T09:09:10.309Z,28.20
2018-05-31T09:11:38.657Z,28.20
2018-05-31T09:14:07.000Z,28.30
2018-05-31T09:16:35.364Z,28.40
2018-05-31T09:19:03.717Z,28.50
2018-05-31T09:21:32.091Z,28.60
2018-05-31T09:24:00.470Z,28.50
2018-05-31T09:26:28.850Z,28.60
2018-05-31T09:28:57.234Z,28.70
2018-05-31T09:31:25.703Z,28.90
2018-05-31T09:33:54.054Z,29.00
2018-05-31T09:36:23.299Z,29.30
2018-05-31T09:38:51.674Z,29.20
2018-05-31T09:41:20.008Z,29.40
2018-05-31T09:43:49.134Z,29.80
2018-05-31T09:46:17.575Z,29.80
2018-05-31T09:48:46.741Z,30.10
2018-05-31T09:51:15.080Z,30.00
2018-05-31T09:53:43.477Z,30.20
2018-05-31T09:56:11.863Z,30.40
2018-05-31T09:58:40.237Z,30.50
2018-05-31T10:01:08.611Z,30.60
2018-05-31T10:03:36.995Z,30.70
2018-05-31T10:06:05.362Z,31.00
2018-05-31T10:08:33.742Z,31.20
2018-05-31T10:11:02.147Z,31.50
2018-05-31T10:13:30.510Z,31.40
2018-05-31T10:15:59.794Z,31.80
2018-05-31T10:18:28.135Z,31.80
2018-05-31T10:20:56.570Z,32.10
2018-05-31T10:23:24.927Z,32.40
2018-05-31T10:25:53.308Z,32.50
2018-05-31T10:28:21.654Z,32.60
2018-05-31T10:30:50.122Z,32.70
2018-05-31T10:33:18.571Z,32.90
2018-05-31T10:35:46.920Z,33.00
2018-05-31T10:38:15.318Z,33.20
2018-05-31T10:40:43.680Z,33.30
2018-05-31T10:43:12.784Z,33.60
2018-05-31T10:45:41.215Z,33.50
2018-05-31T10:48:09.988Z,33.60
2018-05-31T10:50:38.351Z,33.60
2018-05-31T10:53:06.714Z,33.70
2018-05-31T10:55:35.834Z,33.70
2018-05-31T10:58:04.193Z,33.70
2018-05-31T11:00:32.581Z,33.80
2018-05-31T11:03:00.964Z,34.00
2018-05-31T11:05:29.310Z,34.00
2018-05-31T11:07:58.432Z,34.40
2018-05-31T11:10:26.787Z,34.30
2018-05-31T11:12:56.032Z,34.60
2018-05-31T11:15:24.387Z,34.60
2018-05-31T11:17:52.774Z,34.70
2018-05-31T11:20:21.144Z,34.70
2018-05-31T11:22:49.527Z,34.80
2018-05-31T11:25:17.872Z,35.00
2018-05-31T11:27:46.983Z,35.20
2018-05-31T11:30:16.102Z,35.10
2018-05-31T11:32:44.475Z,35.10
2018-05-31T11:35:12.859Z,35.10
2018-05-31T11:37:41.293Z,35.50
2018-05-31T11:40:09.639Z,35.90
2018-05-31T11:42:38.189Z,35.80
2018-05-31T11:45:07.394Z,36.10
2018-05-31T11:47:35.775Z,36.10
2018-05-31T11:50:04.180Z,36.20
2018-05-31T11:52:32.526Z,36.20
2018-05-31T11:55:00.915Z,36.10
2018-05-31T11:57:29.277Z,36.20
2018-05-31T11:59:58.402Z,36.50
2018-05-31T12:02:26.799Z,36.50
2018-05-31T12:04:55.214Z,36.60
2018-05-31T12:07:23.559Z,36.40
2018-05-31T12:09:51.926Z,36.30
2018-05-31T12:12:20.297Z,36.40
2018-05-31T12:14:48.631Z,36.60
2018-05-31T12:17:17.785Z,36.30
2018-05-31T12:19:46.273Z,36.20
2018-05-31T12:22:14.662Z,35.90
2018-05-31T12:24:43.003Z,35.70
2018-05-31T12:27:11.382Z,35.90
2018-05-31T12:29:39.734Z,35.90
2018-05-31T12:32:09.004Z,36.60
2018-05-31T12:34:37.452Z,36.60
2018-05-31T12:39:40.563Z,37.00
2018-05-31T12:42:09.012Z,36.90
2018-05-31T12:44:38.131Z,36.80
2018-05-31T12:47:06.478Z,36.70
2018-05-31T12:49:35.636Z,37.00
2018-05-31T12:52:03.981Z,37.10
2018-05-31T12:54:32.342Z,37.20
2018-05-31T12:57:00.682Z,37.50
2018-05-31T12:59:29.035Z,37.30
2018-05-31T13:01:57.424Z,36.80
2018-05-31T13:04:25.891Z,36.30
2018-05-31T13:06:54.290Z,35.70
2018-05-31T13:09:22.646Z,35.70
2018-05-31T13:11:51.011Z,36.10
2018-05-31T13:14:20.115Z,35.50
2018-05-31T13:16:48.513Z,35.50
2018-05-31T13:19:16.884Z,35.00
2018-05-31T13:21:45.241Z,34.60
2018-05-31T13:24:13.727Z,34.50
2018-05-31T13:26:42.163Z,34.40
2018-05-31T13:29:10.600Z,34.10
2018-05-31T13:31:38.951Z,33.70
2018-05-31T13:34:08.083Z,32.70
2018-05-31T13:36:36.459Z,32.70
2018-05-31T13:39:06.782Z,32.70
2018-05-31T13:41:35.258Z,32.70
2018-05-31T13:44:03.850Z,32.60
2018-05-31T13:46:32.208Z,32.50
2018-05-31T13:49:00.674Z,32.70
2018-05-31T13:51:29.789Z,32.30
2018-05-31T13:53:59.035Z,32.30
2018-05-31T13:56:27.439Z,32.10
2018-05-31T13:58:56.575Z,32.70
2018-05-31T14:01:24.973Z,32.70
2018-05-31T14:03:53.551Z,32.90
2018-05-31T14:06:21.852Z,33.30
2018-05-31T14:08:50.315Z,33.80
2018-05-31T14:11:18.680Z,34.30
2018-05-31T14:13:47.045Z,34.80
2018-05-31T14:16:15.410Z,35.30
2018-05-31T14:18:44.556Z,36.00
2018-05-31T14:21:13.052Z,35.90
2018-05-31T14:23:41.445Z,36.30
2018-05-31T14:26:09.799Z,36.50
2018-05-31T14:28:38.172Z,36.60
2018-05-31T14:31:06.506Z,36.70
2018-05-31T14:33:34.896Z,36.90
2018-05-31T14:36:03.297Z,37.00
2018-05-31T14:38:31.666Z,37.10
2018-05-31T14:41:00.124Z,37.10
2018-05-31T14:43:29.319Z,37.30
2018-05-31T14:45:58.574Z,37.30
2018-05-31T14:48:26.926Z,37.40
2018-05-31T14:50:55.284Z,37.30
2018-05-31T14:53:24.414Z,37.50
2018-05-31T14:55:52.766Z,37.50
2018-05-31T14:58:21.128Z,37.40
2018-05-31T15:00:50.295Z,37.30
2018-05-31T15:03:18.655Z,37.20
2018-05-31T15:05:47.721Z,37.40
2018-05-31T15:08:16.088Z,37.60
2018-05-31T15:10:45.202Z,37.70
2018-05-31T15:13:13.846Z,37.70
2018-05-31T15:15:42.197Z,37.90
2018-05-31T15:18:10.579Z,37.90
2018-05-31T15:20:38.922Z,37.90
2018-05-31T15:23:07.288Z,37.90
2018-05-31T15:25:36.466Z,37.70
2018-05-31T15:28:05.802Z,37.60
2018-05-31T15:30:34.385Z,37.60
2018-05-31T15:33:02.782Z,37.60
2018-05-31T15:35:31.152Z,37.60
2018-05-31T15:37:59.502Z,37.30
2018-05-31T15:40:28.640Z,37.20
2018-05-31T15:42:57.038Z,37.10
2018-05-31T15:45:26.309Z,37.30
2018-05-31T15:47:54.666Z,37.30
2018-05-31T15:50:23.921Z,37.00
2018-05-31T15:52:52.271Z,37.00
2018-05-31T15:55:20.633Z,37.00
2018-05-31T15:57:49.031Z,37.10
2018-05-31T16:00:17.374Z,37.10
2018-05-31T16:02:45.730Z,37.10
2018-05-31T16:05:14.183Z,37.20
2018-05-31T16:07:42.538Z,37.20
2018-05-31T16:10:10.935Z,37.20
2018-05-31T16:12:39.296Z,37.20
2018-05-31T16:15:07.654Z,37.20
2018-05-31T16:17:36.775Z,37.20
2018-05-31T16:20:05.162Z,37.10
2018-05-31T16:22:33.534Z,37.00
2018-05-31T16:25:01.871Z,37.00
2018-05-31T16:27:30.306Z,37.10
2018-05-31T16:29:58.679Z,37.30
2018-05-31T16:32:27.083Z,37.60
2018-05-31T16:34:55.460Z,38.00
2018-05-31T16:37:23.974Z,37.90
2018-05-31T16:39:52.617Z,37.50
2018-05-31T16:42:20.950Z,37.00
2018-05-31T16:44:50.066Z,36.60
2018-05-31T16:47:18.415Z,36.60
2018-05-31T16:49:46.753Z,36.70
2018-05-31T16:52:15.115Z,37.00
2018-05-31T16:54:43.486Z,37.60
2018-05-31T16:57:11.951Z,38.10
2018-05-31T16:59:41.346Z,39.20
2018-05-31T17:02:10.683Z,39.20
2018-05-31T17:04:39.031Z,39.50
2018-05-31T17:07:08.171Z,39.50
2018-05-31T17:09:36.615Z,39.40
2018-05-31T17:12:05.702Z,39.00
2018-05-31T17:14:34.107Z,39.00
2018-05-31T17:17:02.460Z,38.90
2018-05-31T17:19:31.574Z,38.50
2018-05-31T17:21:59.926Z,38.50
2018-05-31T17:24:28.292Z,38.00
2018-05-31T17:26:56.831Z,37.70
2018-05-31T17:29:25.386Z,37.30
2018-05-31T17:31:54.490Z,35.80
2018-05-31T17:34:22.851Z,35.70
2018-05-31T17:36:51.990Z,34.50
2018-05-31T17:39:20.442Z,34.50
2018-05-31T17:41:49.678Z,33.10
2018-05-31T17:44:18.080Z,33.20
2018-05-31T17:46:46.442Z,32.60
2018-05-31T17:49:14.864Z,32.20
2018-05-31T17:51:43.171Z,31.90
2018-05-31T17:54:11.523Z,31.60
2018-05-31T17:56:40.650Z,31.40
2018-05-31T17:59:09.031Z,31.40
2018-05-31T18:01:37.432Z,31.40
2018-05-31T18:04:05.821Z,31.30
2018-05-31T18:06:34.181Z,31.00
2018-05-31T18:09:02.535Z,30.60
2018-05-31T18:11:30.992Z,30.20
2018-05-31T18:14:00.764Z,29.40
2018-05-31T18:16:29.128Z,29.30
2018-05-31T18:18:57.503Z,29.00
2018-05-31T18:21:25.911Z,28.70
2018-05-31T18:23:54.291Z,28.40
2018-05-31T18:26:22.647Z,28.30
2018-05-31T18:28:51.018Z,28.10
2018-05-31T18:31:19.372Z,28.00
2018-05-31T18:33:48.526Z,27.80
2018-05-31T18:36:17.802Z,27.70
2018-05-31T18:38:46.150Z,27.70
2018-05-31T18:41:15.275Z,27.60
2018-05-31T18:43:43.663Z,27.50
2018-05-31T18:46:12.069Z,27.50
2018-05-31T18:48:40.851Z,27.40
2018-05-31T18:51:10.740Z,27.20
2018-05-31T18:53:39.118Z,27.10
2018-05-31T18:56:07.712Z,26.90
2018-05-31T18:58:36.893Z,26.80
2018-05-31T19:01:05.240Z,26.70
2018-05-31T19:03:34.374Z,26.60
2018-05-31T19:06:02.901Z,26.50
2018-05-31T19:08:31.465Z,26.50
2018-05-31T19:10:59.804Z,26.50
2018-05-31T19:16:28.963Z,26.40
2018-05-31T19:19:03.068Z,26.40
2018-05-31T19:21:32.456Z,26.40
2018-05-31T19:24:06.419Z,26.30
2018-05-31T19:26:34.872Z,26.30
2018-05-31T19:29:03.334Z,26.20
2018-05-31T19:31:31.807Z,26.10
2018-05-31T19:34:00.281Z,26.10
2018-05-31T19:36:34.250Z,26.00
2018-05-31T19:39:02.610Z,26.00
2018-05-31T19:41:30.973Z,26.00
2018-05-31T19:44:05.038Z,25.90
2018-05-31T19:46:34.298Z,25.80
2018-05-31T19:49:02.660Z,25.70
2018-05-31T19:51:37.161Z,25.70
2018-05-31T19:54:05.521Z,25.70
2018-05-31T19:56:34.254Z,25.60
2018-05-31T19:59:08.367Z,25.50
2018-05-31T20:01:42.534Z,25.40
2018-05-31T20:04:11.682Z,25.40
2018-05-31T20:06:40.216Z,25.40
2018-05-31T20:09:09.063Z,25.40
2018-05-31T20:11:37.541Z,25.30
2018-05-31T20:14:06.007Z,25.20
2018-05-31T20:16:34.394Z,25.20
2018-05-31T20:19:04.182Z,25.20
2018-05-31T20:21:32.799Z,25.20
2018-05-31T20:24:01.219Z,25.20
2018-05-31T20:26:30.434Z,25.10
2018-05-31T20:28:59.628Z,24.90
2018-05-31T20:31:28.781Z,24.80
2018-05-31T20:33:58.024Z,24.80
2018-05-31T20:36:27.188Z,24.70
2018-05-31T20:38:55.541Z,24.70
2018-05-31T20:41:23.916Z,24.60
2018-05-31T20:43:52.255Z,24.60
2018-05-31T20:46:21.379Z,24.40
2018-05-31T20:48:49.786Z,24.40
2018-05-31T20:51:18.160Z,24.40
2018-05-31T20:53:47.275Z,24.30
2018-05-31T20:56:15.707Z,24.20
2018-05-31T20:58:44.068Z,24.20
2018-05-31T21:01:13.207Z,24.10
2018-05-31T21:03:41.575Z,24.00
2018-05-31T21:06:09.973Z,24.00
2018-05-31T21:08:38.396Z,24.00
2018-05-31T21:11:06.763Z,24.00
2018-05-31T21:13:35.154Z,23.90
2018-05-31T21:16:03.754Z,23.80
2018-05-31T21:18:32.870Z,23.70
2018-05-31T21:21:01.407Z,23.70
2018-05-31T21:23:29.847Z,23.60
2018-05-31T21:25:58.190Z,23.60
2018-05-31T21:28:27.473Z,23.50
2018-05-31T21:30:55.908Z,23.40
2018-05-31T21:33:24.269Z,23.40
2018-05-31T21:35:52.668Z,23.40
2018-05-31T21:38:21.039Z,23.30
2018-05-31T21:40:49.420Z,23.30
2018-05-31T21:43:17.777Z,23.30
2018-05-31T21:45:46.886Z,23.40
2018-05-31T21:48:15.231Z,23.30
2018-05-31T21:50:44.430Z,23.20
2018-05-31T21:53:13.552Z,23.20
2018-05-31T21:55:42.659Z,23.20
2018-05-31T21:58:11.150Z,23.20
2018-05-31T22:00:45.294Z,23.20
2018-05-31T22:03:13.659Z,23.10
2018-05-31T22:05:42.170Z,23.10
2018-05-31T22:08:10.499Z,23.00
2018-05-31T22:10:38.898Z,23.00
2018-05-31T22:13:07.288Z,23.00
2018-05-31T22:15:35.642Z,23.10
2018-05-31T22:18:04.017Z,23.10
2018-05-31T22:20:32.374Z,23.10
2018-05-31T22:23:01.482Z,23.10
2018-05-31T22:25:29.842Z,23.10
2018-05-31T22:27:58.963Z,23.10
2018-05-31T22:30:27.361Z,23.10
2018-05-31T22:32:55.726Z,23.10
2018-05-31T22:35:24.104Z,23.10
2018-05-31T22:37:52.482Z,23.10
2018-05-31T22:40:20.857Z,23.00
2018-05-31T22:42:49.227Z,23.00
2018-05-31T22:45:17.624Z,23.00
2018-05-31T22:47:46.002Z,22.90
2018-05-31T22:50:14.360Z,23.00
2018-05-31T22:52:43.492Z,22.90
2018-05-31T22:55:11.838Z,22.90
2018-05-31T22:57:40.811Z,22.90
2018-05-31T23:00:09.929Z,22.80
2018-05-31T23:02:38.281Z,22.80
2018-05-31T23:05:06.618Z,22.80
2018-05-31T23:07:34.949Z,22.80
2018-05-31T23:10:04.065Z,22.80
2018-05-31T23:12:32.404Z,22.80
2018-05-31T23:15:00.842Z,22.90
2018-05-31T23:17:29.435Z,22.90
2018-05-31T23:19:57.783Z,23.10
2018-05-31T23:22:26.811Z,23.20
2018-05-31T23:24:55.283Z,23.40
2018-05-31T23:27:23.628Z,23.50
2018-05-31T23:29:52.238Z,23.60
2018-05-31T23:32:20.630Z,23.70
2018-05-31T23:34:48.976Z,23.70
2018-05-31T23:37:18.153Z,23.60
2018-05-31T23:39:46.587Z,23.60
2018-05-31T23:42:15.241Z,23.60
2018-05-31T23:44:43.761Z,23.50
2018-05-31T23:47:13.054Z,23.20
2018-05-31T23:49:41.635Z,23.20
2018-05-31T23:52:10.215Z,23.10
2018-05-31T23:54:38.633Z,23.00
2018-05-31T23:57:07.084Z,23.00
2018-05-31T23:59:35.825Z,22.90
